Gilberton, Washington
Current Conditions -  °F | °C
As of 1:35 AM on Monday 20 Oct 2014 (Local Time) from KPWT Reporting Station
Overcast Overcast  
Wind Chill: 57°   Ceiling: 5500
Heat Index: 57°   Visibility: 7mi
Dew Point: 55°   Wind: 5mph
Humidity: 94%   Direction: 190°S
Pressure: 29.72"   Gusts: NA
Location:  47.5964°N, 122.62°W
Report Text: KPWT 200835Z AUTO 19004KT 7SM FEW009 SCT041 OVC055 14/13 A2972 RMK AO1 P0005
Loading
Personal Weather Stations






























Interactive Weather Map
Tropical Storm Tracking
New forecast layout! Learn more

10-Day Weather Forecast

Advertisements
Track Severe Weather on mobile